Newcomerstown, Ohio
Current Conditions -  °F | °C
As of 7:53 PM on Wednesday 22 Oct 2014 (Local Time) from KPHD Reporting Station
Overcast Overcast  
Wind Chill: 45°   Ceiling: 3700
Heat Index: 49°   Visibility: 10mi
Dew Point: 42°   Wind: 9mph
Humidity: 77%   Direction: 320°NW
Pressure: 30.22"   Gusts: NA
Location:  40.27°N, 81.61°W
Report Text: KPHD 222353Z AUTO 32008KT 10SM OVC037 09/06 A3022 RMK AO2 SLP237 T00940056 10111 20094 58001
Loading
Personal Weather Stations






























Interactive Weather Map
Tropical Storm Tracking
New forecast layout! Learn more

10-Day Weather Forecast

Advertisements
Track Severe Weather on mobile